createdAt,value
2023-05-20T00:02:06.221Z,100764.97
2023-05-20T00:05:09.625Z,100765.34
2023-05-20T00:08:12.735Z,100770.59
2023-05-20T00:11:15.807Z,100761.31
2023-05-20T00:14:18.749Z,100768.97
2023-05-20T00:17:21.948Z,100760.72
2023-05-20T00:20:25.449Z,100755.06
2023-05-20T00:23:28.659Z,100753.84
2023-05-20T00:26:31.486Z,100760.78
2023-05-20T00:29:35.063Z,100758.94
2023-05-20T00:32:37.939Z,100747.81
2023-05-20T00:35:42.718Z,100752.00
2023-05-20T00:38:45.843Z,100742.13
2023-05-20T00:41:49.107Z,100752.13
2023-05-20T00:44:52.970Z,100755.56
2023-05-20T00:47:59.942Z,100759.41
2023-05-20T00:51:05.137Z,100752.78
2023-05-20T00:54:08.296Z,100734.59
2023-05-20T00:57:12.053Z,100737.38
2023-05-20T01:00:15.421Z,100741.00
2023-05-20T01:03:18.368Z,100733.16
2023-05-20T01:06:21.539Z,100736.59
2023-05-20T01:09:25.313Z,100728.72
2023-05-20T01:12:32.025Z,100727.00
2023-05-20T01:15:35.909Z,100737.38
2023-05-20T01:18:41.181Z,100722.13
2023-05-20T01:21:45.246Z,100728.06
2023-05-20T01:24:48.638Z,100738.41
2023-05-20T01:27:53.033Z,100727.97
2023-05-20T01:31:00.913Z,100730.72
2023-05-20T01:34:06.025Z,100733.81
2023-05-20T01:37:10.882Z,100732.25
2023-05-20T01:40:16.769Z,100749.56
2023-05-20T01:43:21.184Z,100753.41
2023-05-20T01:46:23.979Z,100746.88
2023-05-20T01:49:27.703Z,100744.50
2023-05-20T01:52:31.982Z,100748.63
2023-05-20T01:55:35.251Z,100748.25
2023-05-20T01:58:38.200Z,100747.69
2023-05-20T02:01:41.924Z,100747.78
2023-05-20T02:04:51.601Z,100745.66
2023-05-20T02:07:54.443Z,100734.75
2023-05-20T02:10:58.661Z,100741.38
2023-05-20T02:14:01.465Z,100730.03
2023-05-20T02:17:04.825Z,100737.22
2023-05-20T02:20:08.320Z,100733.81
2023-05-20T02:23:11.861Z,100730.66
2023-05-20T02:26:14.640Z,100725.78
2023-05-20T02:29:17.968Z,100723.34
2023-05-20T02:32:21.680Z,100730.06
2023-05-20T02:35:24.904Z,100728.63
2023-05-20T02:38:27.785Z,100737.50
2023-05-20T02:41:31.017Z,100731.47
2023-05-20T02:44:33.819Z,100740.25
2023-05-20T02:47:37.190Z,100732.63
2023-05-20T02:50:40.833Z,100736.06
2023-05-20T02:53:44.104Z,100738.22
2023-05-20T02:56:47.198Z,100734.22
2023-05-20T02:59:50.492Z,100735.50
2023-05-20T03:02:53.374Z,100731.53
2023-05-20T03:05:56.593Z,100741.78
2023-05-20T03:08:59.725Z,100739.44
2023-05-20T03:12:02.763Z,100736.28
2023-05-20T03:15:06.517Z,100734.31
2023-05-20T03:18:11.464Z,100740.72
2023-05-20T03:21:14.284Z,100749.53
2023-05-20T03:24:18.360Z,100750.50
2023-05-20T03:27:22.873Z,100748.59
2023-05-20T03:30:26.598Z,100741.69
2023-05-20T03:33:30.432Z,100742.47
2023-05-20T03:36:33.602Z,100745.19
2023-05-20T03:39:36.643Z,100745.09
2023-05-20T03:42:40.230Z,100756.50
2023-05-20T03:45:43.051Z,100747.59
2023-05-20T03:48:46.482Z,100756.38
2023-05-20T03:51:49.350Z,100756.31
2023-05-20T03:54:54.593Z,100748.47
2023-05-20T03:57:58.136Z,100755.37
2023-05-20T04:01:01.302Z,100743.59
2023-05-20T04:04:05.296Z,100736.97
2023-05-20T04:07:08.604Z,100740.25
2023-05-20T04:10:12.719Z,100747.84
2023-05-20T04:13:15.465Z,100757.56
2023-05-20T04:16:18.673Z,100756.94
2023-05-20T04:19:21.612Z,100763.34
2023-05-20T04:22:25.294Z,100762.75
2023-05-20T04:25:28.151Z,100760.56
2023-05-20T04:28:34.021Z,100756.69
2023-05-20T04:31:36.912Z,100749.66
2023-05-20T04:34:40.141Z,100761.00
2023-05-20T04:37:44.915Z,100757.84
2023-05-20T04:40:48.064Z,100765.06
2023-05-20T04:43:50.816Z,100774.28
2023-05-20T04:46:53.971Z,100776.50
2023-05-20T04:49:59.776Z,100772.59
2023-05-20T04:53:03.092Z,100775.66
2023-05-20T04:56:06.133Z,100777.94
2023-05-20T04:59:10.729Z,100782.72
2023-05-20T05:02:13.877Z,100781.16
2023-05-20T05:05:17.223Z,100778.34
2023-05-20T05:08:20.061Z,100774.94
2023-05-20T05:11:24.074Z,100772.44
2023-05-20T05:14:27.306Z,100772.25
2023-05-20T05:17:31.474Z,100755.56
2023-05-20T05:20:34.297Z,100756.72
2023-05-20T05:23:37.669Z,100769.75
2023-05-20T05:26:40.741Z,100761.44
2023-05-20T05:29:44.051Z,100769.88
2023-05-20T05:32:46.839Z,100765.91
2023-05-20T05:35:51.268Z,100765.91
2023-05-20T05:38:54.288Z,100767.47
2023-05-20T05:41:58.276Z,100767.31
2023-05-20T05:45:01.354Z,100772.63
2023-05-20T05:48:04.967Z,100768.53
2023-05-20T05:51:08.060Z,100773.16
2023-05-20T05:54:11.581Z,100772.31
2023-05-20T05:57:14.457Z,100781.97
2023-05-20T06:00:17.884Z,100782.69
2023-05-20T06:03:20.700Z,100789.31
2023-05-20T06:06:24.177Z,100785.13
2023-05-20T06:09:26.998Z,100781.88
2023-05-20T06:12:30.299Z,100776.91
2023-05-20T06:15:33.264Z,100771.53
2023-05-20T06:18:38.120Z,100779.94
2023-05-20T06:21:41.878Z,100776.75
2023-05-20T06:24:45.375Z,100780.81
2023-05-20T06:27:48.595Z,100781.97
2023-05-20T06:30:55.039Z,100783.84
2023-05-20T06:33:59.435Z,100774.22
2023-05-20T06:37:02.813Z,100768.75
2023-05-20T06:40:06.357Z,100783.06
2023-05-20T06:43:10.668Z,100772.37
2023-05-20T06:46:17.065Z,100772.91
2023-05-20T06:49:21.282Z,100760.31
2023-05-20T06:52:24.497Z,100756.41
2023-05-20T06:55:28.439Z,100751.00
2023-05-20T06:58:31.339Z,100739.59
2023-05-20T07:01:34.676Z,100747.94
2023-05-20T07:04:37.930Z,100742.56
2023-05-20T07:07:41.248Z,100737.16
2023-05-20T07:10:46.747Z,100738.13
2023-05-20T07:13:50.848Z,100732.47
2023-05-20T07:16:53.806Z,100728.25
2023-05-20T07:19:57.212Z,100719.75
2023-05-20T07:23:01.209Z,100718.03
2023-05-20T07:26:05.048Z,100717.06
2023-05-20T07:29:08.166Z,100712.41
2023-05-20T07:32:12.939Z,100699.38
2023-05-20T07:35:15.802Z,100694.69
2023-05-20T07:38:19.591Z,100703.03
2023-05-20T07:41:22.908Z,100697.44
2023-05-20T07:44:26.837Z,100697.56
2023-05-20T07:47:33.060Z,100700.03
2023-05-20T07:50:38.011Z,100698.88
2023-05-20T07:53:40.781Z,100690.25
2023-05-20T07:56:43.944Z,100701.94
2023-05-20T07:59:47.104Z,100695.38
2023-05-20T08:02:51.268Z,100697.81
2023-05-20T08:05:54.761Z,100692.88
2023-05-20T08:08:57.799Z,100696.84
2023-05-20T08:12:01.237Z,100689.50
2023-05-20T08:15:05.428Z,100673.75
2023-05-20T08:18:08.637Z,100679.78
2023-05-20T08:21:12.493Z,100687.53
2023-05-20T08:24:16.182Z,100682.03
2023-05-20T08:27:19.315Z,100670.56
2023-05-20T08:30:23.280Z,100664.72
2023-05-20T08:33:26.225Z,100664.94
2023-05-20T08:36:29.602Z,100661.06
2023-05-20T08:39:32.467Z,100656.50
2023-05-20T08:42:35.739Z,100660.37
2023-05-20T08:45:39.354Z,100645.72
2023-05-20T08:48:42.849Z,100662.28
2023-05-20T08:51:47.533Z,100657.28
2023-05-20T08:54:52.377Z,100657.47
2023-05-20T08:57:55.508Z,100660.13
2023-05-20T09:01:02.340Z,100660.91
2023-05-20T09:04:05.312Z,100646.47
2023-05-20T09:07:08.489Z,100662.81
2023-05-20T09:10:11.688Z,100651.09
2023-05-20T09:13:14.870Z,100655.50
2023-05-20T09:16:17.866Z,100658.63
2023-05-20T09:19:24.859Z,100652.34
2023-05-20T09:22:29.692Z,100647.41
2023-05-20T09:25:33.343Z,100648.59
2023-05-20T09:28:38.556Z,100649.03
2023-05-20T09:31:41.770Z,100642.97
2023-05-20T09:34:47.788Z,100643.44
2023-05-20T09:37:55.497Z,100639.59
2023-05-20T09:41:01.915Z,100637.34
2023-05-20T09:44:07.359Z,100628.34
2023-05-20T09:47:10.473Z,100620.84
2023-05-20T09:50:15.243Z,100633.34
2023-05-20T09:53:18.745Z,100627.91
2023-05-20T09:56:25.695Z,100618.47
2023-05-20T09:59:30.454Z,100617.28
2023-05-20T10:02:38.403Z,100621.84
2023-05-20T10:06:05.590Z,100611.41
2023-05-20T10:09:41.782Z,100616.25
2023-05-20T10:12:50.766Z,100604.62
2023-05-20T10:16:05.522Z,100601.06
2023-05-20T10:19:32.757Z,100592.25
2023-05-20T10:22:35.872Z,100593.13
2023-05-20T10:25:38.963Z,100582.03
2023-05-20T10:28:42.030Z,100585.75
2023-05-20T10:31:49.003Z,100574.03
2023-05-20T10:34:51.957Z,100586.91
2023-05-20T10:38:06.597Z,100578.38
2023-05-20T10:41:11.554Z,100574.25
2023-05-20T10:44:14.662Z,100565.91
2023-05-20T10:47:25.306Z,100567.31
2023-05-20T10:50:36.910Z,100565.50
2023-05-20T10:53:41.650Z,100557.88
2023-05-20T10:56:55.305Z,100556.41
2023-05-20T10:59:59.480Z,100562.56
2023-05-20T11:03:03.655Z,100550.81
2023-05-20T11:06:16.041Z,100554.12
2023-05-20T11:09:20.872Z,100541.84
2023-05-20T11:12:28.179Z,100549.25
2023-05-20T11:15:32.559Z,100548.00
2023-05-20T11:18:35.234Z,100563.78
2023-05-20T11:21:44.461Z,100557.41
2023-05-20T11:24:47.695Z,100560.13
2023-05-20T11:27:52.168Z,100546.72
2023-05-20T11:30:55.753Z,100544.59
2023-05-20T11:34:02.515Z,100547.97
2023-05-20T11:37:10.091Z,100550.47
2023-05-20T11:40:13.911Z,100538.94
2023-05-20T11:43:17.312Z,100530.88
2023-05-20T11:46:21.640Z,100538.31
2023-05-20T11:49:24.504Z,100533.34
2023-05-20T11:52:29.676Z,100539.16
2023-05-20T11:55:45.696Z,100543.34
2023-05-20T11:58:48.856Z,100535.84
2023-05-20T12:01:51.536Z,100538.47
2023-05-20T12:04:54.622Z,100533.16
2023-05-20T12:07:57.474Z,100527.94
2023-05-20T12:11:00.677Z,100533.47
2023-05-20T12:14:04.242Z,100516.91
2023-05-20T12:17:07.258Z,100535.16
2023-05-20T12:20:10.924Z,100520.03
2023-05-20T12:23:13.929Z,100521.38
2023-05-20T12:26:17.133Z,100517.47
2023-05-20T12:29:20.137Z,100507.25
2023-05-20T12:32:23.813Z,100510.75
2023-05-20T12:35:40.802Z,100503.09
2023-05-20T12:38:43.674Z,100508.78
2023-05-20T12:41:46.841Z,100501.53
2023-05-20T12:44:49.881Z,100500.66
2023-05-20T12:47:54.941Z,100502.28
2023-05-20T12:50:57.717Z,100495.28
2023-05-20T12:54:01.106Z,100497.75
2023-05-20T12:57:04.325Z,100497.66
2023-05-20T13:00:09.195Z,100491.09
2023-05-20T13:03:12.039Z,100487.69
2023-05-20T13:06:15.287Z,100475.69
2023-05-20T13:09:18.150Z,100475.91
2023-05-20T13:12:21.665Z,100478.63
2023-05-20T13:15:24.383Z,100475.50
2023-05-20T13:18:27.816Z,100462.00
2023-05-20T13:21:30.557Z,100458.00
2023-05-20T13:24:34.852Z,100455.78
2023-05-20T13:27:37.996Z,100457.56
2023-05-20T13:30:41.237Z,100449.88
2023-05-20T13:33:44.126Z,100452.47
2023-05-20T13:36:48.026Z,100454.03
2023-05-20T13:39:51.622Z,100450.31
2023-05-20T13:42:54.758Z,100448.22
2023-05-20T13:45:57.693Z,100455.56
2023-05-20T13:49:01.400Z,100443.38
2023-05-20T13:52:04.950Z,100454.13
2023-05-20T13:55:08.871Z,100449.38
2023-05-20T13:58:12.132Z,100446.38
2023-05-20T14:01:15.772Z,100437.81
2023-05-20T14:04:19.487Z,100429.38
2023-05-20T14:07:22.928Z,100435.31
2023-05-20T14:10:26.584Z,100427.37
2023-05-20T14:13:29.622Z,100431.59
2023-05-20T14:16:33.328Z,100423.50
2023-05-20T14:19:36.343Z,100423.13
2023-05-20T14:22:39.480Z,100419.03
2023-05-20T14:25:42.394Z,100425.31
2023-05-20T14:28:47.757Z,100418.41
2023-05-20T14:31:51.149Z,100410.75
2023-05-20T14:34:54.353Z,100416.31
2023-05-20T14:37:57.157Z,100417.94
2023-05-20T14:41:00.471Z,100408.59
2023-05-20T14:44:03.176Z,100419.03
2023-05-20T14:47:06.442Z,100412.38
2023-05-20T14:50:09.727Z,100403.69
2023-05-20T14:53:12.849Z,100406.16
2023-05-20T14:56:15.576Z,100407.28
2023-05-20T14:59:19.607Z,100402.09
2023-05-20T15:02:22.678Z,100406.06
2023-05-20T15:05:25.909Z,100398.62
2023-05-20T15:08:29.208Z,100402.75
2023-05-20T15:11:32.374Z,100399.75
2023-05-20T15:14:35.192Z,100396.75
2023-05-20T15:17:38.414Z,100382.97
2023-05-20T15:20:41.788Z,100373.84
2023-05-20T15:23:45.392Z,100378.91
2023-05-20T15:26:48.372Z,100379.66
2023-05-20T15:29:51.572Z,100377.34
2023-05-20T15:32:54.451Z,100378.94
2023-05-20T15:35:58.054Z,100380.84
2023-05-20T15:39:01.084Z,100372.00
2023-05-20T15:42:05.458Z,100367.09
2023-05-20T15:45:09.788Z,100370.22
2023-05-20T15:48:12.984Z,100366.28
2023-05-20T15:51:15.891Z,100369.25
2023-05-20T15:54:20.397Z,100363.75
2023-05-20T15:57:23.593Z,100360.88
2023-05-20T16:00:26.771Z,100357.91
2023-05-20T16:03:30.192Z,100362.47
2023-05-20T16:06:34.418Z,100359.47
2023-05-20T16:09:37.751Z,100359.78
2023-05-20T16:12:40.586Z,100361.69
2023-05-20T16:15:44.360Z,100361.84
2023-05-20T16:18:47.281Z,100366.06
2023-05-20T16:21:50.512Z,100365.59
2023-05-20T16:24:53.466Z,100369.22
2023-05-20T16:27:58.110Z,100359.22
2023-05-20T16:31:02.728Z,100368.81
2023-05-20T16:34:10.464Z,100358.41
2023-05-20T16:37:18.132Z,100367.06
2023-05-20T16:40:23.167Z,100368.09
2023-05-20T16:43:25.826Z,100364.94
2023-05-20T16:46:29.275Z,100375.34
2023-05-20T16:49:32.075Z,100376.84
2023-05-20T16:52:36.252Z,100383.03
2023-05-20T16:55:39.137Z,100378.22
2023-05-20T16:58:42.247Z,100379.63
2023-05-20T17:01:45.760Z,100377.47
2023-05-20T17:04:49.040Z,100378.44
2023-05-20T17:07:51.992Z,100380.59
2023-05-20T17:10:55.600Z,100383.97
2023-05-20T17:13:58.376Z,100393.66
2023-05-20T17:17:01.527Z,100390.78
2023-05-20T17:20:08.007Z,100393.19
2023-05-20T17:23:11.384Z,100388.34
2023-05-20T17:26:14.357Z,100398.69
2023-05-20T17:29:17.832Z,100396.22
2023-05-20T17:32:21.030Z,100396.72
2023-05-20T17:35:28.270Z,100389.37
2023-05-20T17:38:31.209Z,100394.16
2023-05-20T17:41:34.298Z,100393.37
2023-05-20T17:44:37.130Z,100396.19
2023-05-20T17:47:40.378Z,100395.72
2023-05-20T17:50:45.349Z,100396.87
2023-05-20T17:53:48.708Z,100405.69
2023-05-20T17:56:51.614Z,100408.50
2023-05-20T17:59:55.415Z,100410.31
2023-05-20T18:02:58.479Z,100402.19
2023-05-20T18:06:02.206Z,100408.28
2023-05-20T18:09:06.256Z,100396.00
2023-05-20T18:12:09.714Z,100396.13
2023-05-20T18:15:14.408Z,100401.84
2023-05-20T18:18:17.719Z,100403.81
2023-05-20T18:21:22.103Z,100397.22
2023-05-20T18:24:25.245Z,100405.69
2023-05-20T18:27:28.068Z,100400.66
2023-05-20T18:30:31.307Z,100404.88
2023-05-20T18:33:35.031Z,100412.12
2023-05-20T18:36:38.675Z,100404.78
2023-05-20T18:39:41.661Z,100403.47
2023-05-20T18:42:45.003Z,100412.66
2023-05-20T18:45:47.733Z,100408.41
2023-05-20T18:48:51.020Z,100402.97
2023-05-20T18:51:53.749Z,100414.34
2023-05-20T18:54:56.917Z,100410.09
2023-05-20T18:57:59.666Z,100415.66
2023-05-20T19:01:02.818Z,100409.84
2023-05-20T19:04:06.288Z,100412.09
2023-05-20T19:07:11.724Z,100410.72
2023-05-20T19:10:15.483Z,100413.63
2023-05-20T19:13:18.703Z,100415.81
2023-05-20T19:16:21.582Z,100430.16
2023-05-20T19:19:24.868Z,100424.03
2023-05-20T19:22:27.822Z,100420.50
2023-05-20T19:25:31.140Z,100417.91
2023-05-20T19:28:34.018Z,100428.91
2023-05-20T19:31:41.547Z,100428.69
2023-05-20T19:34:44.943Z,100433.63
2023-05-20T19:37:48.101Z,100428.34
2023-05-20T19:40:51.101Z,100431.81
2023-05-20T19:43:54.219Z,100432.31
2023-05-20T19:46:56.953Z,100439.31
2023-05-20T19:50:00.170Z,100441.13
2023-05-20T19:53:06.505Z,100436.66
2023-05-20T19:56:09.720Z,100439.56
2023-05-20T19:59:13.265Z,100442.19
2023-05-20T20:02:16.495Z,100441.84
2023-05-20T20:05:22.367Z,100442.81
2023-05-20T20:08:26.507Z,100441.81
2023-05-20T20:11:29.566Z,100439.00
2023-05-20T20:14:32.699Z,100441.22
2023-05-20T20:17:35.778Z,100438.78
2023-05-20T20:20:40.846Z,100434.53
2023-05-20T20:23:43.950Z,100434.31
2023-05-20T20:26:49.426Z,100428.81
2023-05-20T20:29:52.990Z,100428.03
2023-05-20T20:32:56.073Z,100430.03
2023-05-20T20:35:59.246Z,100429.22
2023-05-20T20:39:05.400Z,100432.16
2023-05-20T20:42:08.579Z,100432.38
2023-05-20T20:45:18.824Z,100433.22
2023-05-20T20:48:27.280Z,100431.66
2023-05-20T20:51:30.331Z,100425.25
2023-05-20T20:54:33.566Z,100431.84
2023-05-20T20:57:36.988Z,100425.94
2023-05-20T21:00:44.917Z,100428.91
2023-05-20T21:03:48.647Z,100429.72
2023-05-20T21:06:52.493Z,100424.09
2023-05-20T21:09:55.922Z,100425.28
2023-05-20T21:12:59.590Z,100423.44
2023-05-20T21:16:02.473Z,100427.37
2023-05-20T21:19:05.551Z,100427.91
2023-05-20T21:22:08.401Z,100435.84
2023-05-20T21:25:11.471Z,100425.94
2023-05-20T21:28:14.406Z,100427.94
2023-05-20T21:31:17.729Z,100429.94
2023-05-20T21:34:20.660Z,100433.19
2023-05-20T21:37:23.939Z,100428.88
2023-05-20T21:40:26.732Z,100431.28
2023-05-20T21:43:31.006Z,100422.84
2023-05-20T21:46:33.958Z,100424.06
2023-05-20T21:49:37.034Z,100417.66
2023-05-20T21:52:40.435Z,100430.06
2023-05-20T21:55:43.428Z,100424.91
2023-05-20T21:58:46.111Z,100426.59
2023-05-20T22:01:51.053Z,100430.59
2023-05-20T22:04:55.513Z,100427.78
2023-05-20T22:08:00.857Z,100428.25
2023-05-20T22:11:05.621Z,100425.06
2023-05-20T22:14:08.551Z,100427.47
2023-05-20T22:17:11.729Z,100418.62
2023-05-20T22:20:14.652Z,100422.72
2023-05-20T22:23:18.001Z,100425.50
2023-05-20T22:26:20.908Z,100418.62
2023-05-20T22:29:24.056Z,100420.19
2023-05-20T22:32:26.795Z,100423.81
2023-05-20T22:35:30.026Z,100421.06
2023-05-20T22:38:33.016Z,100424.31
2023-05-20T22:41:36.313Z,100416.28
2023-05-20T22:44:39.096Z,100425.16
2023-05-20T22:47:42.225Z,100415.94
2023-05-20T22:50:45.761Z,100416.75
2023-05-20T22:53:49.282Z,100413.13
2023-05-20T22:56:59.333Z,100409.13
2023-05-20T23:00:02.730Z,100417.91
2023-05-20T23:03:06.115Z,100417.03
2023-05-20T23:06:09.524Z,100407.75
2023-05-20T23:09:13.040Z,100400.25
2023-05-20T23:12:16.619Z,100398.97
2023-05-20T23:15:19.459Z,100402.94
2023-05-20T23:18:22.555Z,100400.66
2023-05-20T23:21:25.607Z,100402.94
2023-05-20T23:24:28.903Z,100404.00
2023-05-20T23:27:32.325Z,100394.41
2023-05-20T23:30:36.419Z,100396.91
2023-05-20T23:33:39.196Z,100389.00
2023-05-20T23:36:42.765Z,100390.63
2023-05-20T23:39:46.368Z,100393.37
2023-05-20T23:42:49.447Z,100393.03
2023-05-20T23:45:52.168Z,100392.22
2023-05-20T23:48:55.206Z,100405.44
2023-05-20T23:51:58.085Z,100400.69
2023-05-20T23:55:01.292Z,100394.34
2023-05-20T23:58:04.053Z,100398.81
